Eko 2 — SY9957 — position and weather

sailwx.info

Track history (hours):
 
Tides and Currents Weather Stations Pressure Air Temp Water Temp Dewpoint Dewpoint Depression Visibility Wind Speed Wind Dir Waves Ship Positions

Eko 2

Last reported at 2017-Jun-24 17:31 UTC. Time now 2017-Jun-24 17:30 UTC.
Position N 37°09' E 025°07'.

Length 89 m; draft 4.3 m.

Type: Ship (hazmat cat A). MMSI: 240827000.

Date/timePositionNaut miles runAvg speedWind from/ knotsBaromVisibWave heightAir tempDewpointWater temp
2017-Jun-24 17:31N 37°09' E 025°07'612.1
2017-Jun-24 17:00N 37°15' E 025°07'611.9
2017-Jun-24 16:31N 37°21' E 025°08'612.1
2017-Jun-24 16:01N 37°27' E 025°09'510.4
2017-Jun-24 15:30N 37°32' E 025°09'0 0.1
2017-Jun-24 15:00N 37°32' E 025°09'0 0.0
2017-Jun-24 14:00N 37°32' E 025°09'0 0.0
2017-Jun-24 13:30N 37°32' E 025°09'0 0.0
2017-Jun-24 13:00N 37°32' E 025°09'0 0.0
2017-Jun-24 12:21N 37°32' E 025°09'0 0.0
2017-Jun-24 12:00N 37°32' E 025°09'0 0.0
2017-Jun-24 11:30N 37°32' E 025°09'0 0.0
2017-Jun-24 11:00N 37°32' E 025°09'0 0.0
2017-Jun-24 10:30N 37°32' E 025°09'0 0.0
2017-Jun-24 10:00N 37°32' E 025°09'0 0.0
2017-Jun-24 09:30N 37°32' E 025°09'0 0.0
2017-Jun-24 09:00N 37°32' E 025°09'0 0.0
2017-Jun-24 08:24N 37°32' E 025°09'0 0.0
2017-Jun-24 08:00N 37°32' E 025°09'0 0.0
2017-Jun-24 07:30N 37°32' E 025°09'0 0.0
2017-Jun-24 07:00N 37°32' E 025°09'1 1.1
2017-Jun-24 06:30N 37°32' E 025°09'5 9.9
2017-Jun-24 06:00N 37°29' E 025°15'4 8.1
2017-Jun-24 05:30N 37°28' E 025°20'0 0.0
2017-Jun-24 05:00N 37°28' E 025°20'0 0.0
2017-Jun-24 04:30N 37°28' E 025°20'0 0.0
2017-Jun-24 04:00N 37°28' E 025°20'0 0.0
2017-Jun-24 03:30N 37°28' E 025°20'0 0.0
2017-Jun-24 03:00N 37°28' E 025°20'0 0.0
2017-Jun-24 02:30N 37°28' E 025°20'0 0.0
2017-Jun-24 02:00N 37°28' E 025°20'0 0.0
2017-Jun-24 01:30N 37°28' E 025°20'0 0.0
2017-Jun-24 00:57N 37°28' E 025°20'0 0.0
2017-Jun-24 00:27N 37°28' E 025°20'0 0.0
2017-Jun-24 00:00N 37°28' E 025°20'0 0.0
2017-Jun-23 23:30N 37°28' E 025°20'0 0.0
2017-Jun-23 23:00N 37°28' E 025°20'0 0.0
2017-Jun-23 22:30N 37°28' E 025°20'0 0.0
2017-Jun-23 22:00N 37°28' E 025°20'1 2.4
2017-Jun-23 21:31N 37°28' E 025°18'510.1
2017-Jun-23 21:00N 37°27' E 025°12'611.4
2017-Jun-23 20:30N 37°25' E 025°05'611.3
2017-Jun-23 20:00N 37°21' E 024°60'611.4
2017-Jun-23 19:31N 37°17' E 024°54'611.5
2017-Jun-23 19:01N 37°13' E 024°49'44 2.1
2017-Jun-22 22:25N 37°30' E 023°58'410.4
2017-Jun-22 22:01N 37°32' E 023°54'510.3
2017-Jun-22 21:30N 37°35' E 023°49'510.5
2017-Jun-22 21:00N 37°39' E 023°44'510.0
2017-Jun-22 20:30N 37°43' E 023°40'5 9.9
2017-Jun-22 20:00N 37°47' E 023°38'5 9.5
2017-Jun-22 19:30N 37°52' E 023°36'5 9.7
2017-Jun-22 19:00N 37°57' E 023°36'4 8.5
2017-Jun-22 18:30N 37°60' E 023°33'3 5.3
2017-Jun-22 18:01N 38°02' E 023°35'0 0.6
2017-Jun-22 17:28N 38°02' E 023°36'0 0.0
2017-Jun-22 16:58N 38°02' E 023°36'0 0.0
2017-Jun-22 16:28N 38°02' E 023°36'0 0.0
2017-Jun-22 15:55N 38°02' E 023°36'0 0.0
2017-Jun-22 15:28N 38°02' E 023°36'0 0.0
2017-Jun-22 14:58N 38°02' E 023°36'0 0.0
2017-Jun-22 14:28N 38°02' E 023°36'0 0.0
2017-Jun-22 13:28N 38°02' E 023°36'0 0.0
2017-Jun-22 12:58N 38°02' E 023°36'0 0.0
2017-Jun-22 12:28N 38°02' E 023°36'0 0.0
2017-Jun-22 11:58N 38°02' E 023°36'0 0.0
2017-Jun-22 11:25N 38°02' E 023°36'0 0.0
2017-Jun-22 10:58N 38°02' E 023°36'0 0.0
2017-Jun-22 10:28N 38°02' E 023°36'0 0.0
2017-Jun-22 09:58N 38°02' E 023°36'0 0.0
2017-Jun-22 09:28N 38°02' E 023°36'0 0.0
2017-Jun-22 08:58N 38°02' E 023°36'0 0.0
2017-Jun-22 08:29N 38°02' E 023°36'2 3.8
2017-Jun-22 08:00N 38°01' E 023°34'1 2.2
2017-Jun-22 07:29N 38°02' E 023°32'0 0.0
2017-Jun-22 06:59N 38°02' E 023°32'0 0.0
2017-Jun-22 06:29N 38°02' E 023°32'0 0.0
2017-Jun-22 05:59N 38°02' E 023°32'0 0.0
2017-Jun-22 05:29N 38°02' E 023°32'0 0.0
2017-Jun-22 04:59N 38°02' E 023°32'0 0.0
2017-Jun-22 04:29N 38°02' E 023°32'0 0.0
2017-Jun-22 03:59N 38°02' E 023°32'0 0.0
2017-Jun-22 03:29N 38°02' E 023°32'0 0.0
2017-Jun-22 02:56N 38°02' E 023°32'0 0.0
2017-Jun-22 02:29N 38°02' E 023°32'0 0.0
2017-Jun-22 01:59N 38°02' E 023°32'0 0.0
2017-Jun-22 01:29N 38°02' E 023°32'0 0.0
2017-Jun-22 00:59N 38°02' E 023°32'0 0.0
2017-Jun-22 00:29N 38°02' E 023°32'0 0.0
2017-Jun-21 23:59N 38°02' E 023°32'0 0.0
2017-Jun-21 23:29N 38°02' E 023°32'0 0.0
2017-Jun-21 22:59N 38°02' E 023°32'0 0.0
2017-Jun-21 22:29N 38°02' E 023°32'0 0.0
2017-Jun-21 21:59N 38°02' E 023°32'0 0.0
2017-Jun-21 21:29N 38°02' E 023°32'0 0.0
2017-Jun-21 20:59N 38°02' E 023°32'0 0.0
2017-Jun-21 20:29N 38°02' E 023°32'0 0.0
2017-Jun-21 19:59N 38°02' E 023°32'0 0.0
2017-Jun-21 19:29N 38°02' E 023°32'0 0.0
2017-Jun-21 18:59N 38°02' E 023°32'0 0.0
2017-Jun-21 18:29N 38°02' E 023°32'0 0.0
2017-Jun-21 17:59N 38°02' E 023°32'0 0.0
2017-Jun-21 17:29N 38°02' E 023°32'0 0.0
2017-Jun-21 16:59N 38°02' E 023°32'0 0.0
2017-Jun-21 16:29N 38°02' E 023°32'0 0.0
2017-Jun-21 15:59N 38°02' E 023°32'0 0.0
2017-Jun-21 15:29N 38°02' E 023°32'0 0.0
2017-Jun-21 14:59N 38°02' E 023°32'0 0.0
2017-Jun-21 14:29N 38°02' E 023°32'0 0.0
2017-Jun-21 13:29N 38°02' E 023°32'0 0.0
2017-Jun-21 12:59N 38°02' E 023°32'0 0.0
2017-Jun-21 12:29N 38°02' E 023°32'0 0.0
2017-Jun-21 11:59N 38°02' E 023°32'0 0.0
2017-Jun-21 11:29N 38°02' E 023°32'0 0.0
2017-Jun-21 10:59N 38°02' E 023°32'0 0.0
2017-Jun-21 10:29N 38°02' E 023°32'0 0.0
2017-Jun-21 09:59N 38°02' E 023°32'0 0.0
2017-Jun-21 09:29N 38°02' E 023°32'0 0.0
2017-Jun-21 08:59N 38°02' E 023°32'0 0.0
2017-Jun-21 08:29N 38°02' E 023°32'0 0.0
2017-Jun-21 07:59N 38°02' E 023°32'0 0.0
2017-Jun-21 07:29N 38°02' E 023°32'0 0.0
2017-Jun-21 06:59N 38°02' E 023°32'0 0.0
2017-Jun-21 06:29N 38°02' E 023°32'0 0.0
2017-Jun-21 05:59N 38°02' E 023°32'0 0.0
2017-Jun-21 05:29N 38°02' E 023°32'0 0.0
2017-Jun-21 04:56N 38°02' E 023°32'0 0.0
2017-Jun-21 04:29N 38°02' E 023°32'0 0.0
2017-Jun-21 03:59N 38°02' E 023°32'0 0.0
2017-Jun-21 03:29N 38°02' E 023°32'0 0.0
2017-Jun-21 02:59N 38°02' E 023°32'0 0.0
2017-Jun-21 02:29N 38°02' E 023°32'0 0.0
2017-Jun-21 01:59N 38°02' E 023°32'0 0.0
2017-Jun-21 01:29N 38°02' E 023°32'0 0.0
2017-Jun-21 00:59N 38°02' E 023°32'0 0.0
2017-Jun-21 00:29N 38°02' E 023°32'0 0.0
2017-Jun-20 23:59N 38°02' E 023°32'0 0.0
2017-Jun-20 23:29N 38°02' E 023°32'0 0.0
2017-Jun-20 22:59N 38°02' E 023°32'0 0.0
2017-Jun-20 22:29N 38°02' E 023°32'0 0.0
2017-Jun-20 21:59N 38°02' E 023°32'0 0.0
2017-Jun-20 21:29N 38°02' E 023°32'0 0.0
2017-Jun-20 20:59N 38°02' E 023°32'0 0.0
2017-Jun-20 20:29N 38°02' E 023°32'0 0.0
2017-Jun-20 19:59N 38°02' E 023°32'0 0.0
2017-Jun-20 19:29N 38°02' E 023°32'0 0.0
2017-Jun-20 18:59N 38°02' E 023°32'0 0.0
2017-Jun-20 18:29N 38°02' E 023°32'0 0.0
2017-Jun-20 17:59N 38°02' E 023°32'0 0.0
2017-Jun-20 17:29N 38°02' E 023°32'0 0.0
2017-Jun-20 16:59N 38°02' E 023°32'0 0.0
2017-Jun-20 16:29N 38°02' E 023°32'0 0.0
2017-Jun-20 15:59N 38°02' E 023°32'0 0.0
2017-Jun-20 15:29N 38°02' E 023°32'0 0.0
2017-Jun-20 14:59N 38°02' E 023°32'0 0.0
2017-Jun-20 14:29N 38°02' E 023°32'0 0.0
2017-Jun-20 13:29N 38°02' E 023°32'0 0.0
2017-Jun-20 12:59N 38°02' E 023°32'0 0.0
2017-Jun-20 12:30N 38°02' E 023°32'1 2.8
2017-Jun-20 12:00N 38°01' E 023°33'2 4.3
2017-Jun-20 11:30N 38°01' E 023°31'2 3.6
2017-Jun-20 11:01N 38°01' E 023°33'1 2.4
2017-Jun-20 10:31N 38°02' E 023°32'1 2.2
2017-Jun-20 10:00N 38°01' E 023°32'2 3.2
2017-Jun-20 09:28N 38°01' E 023°30'0 0.1
2017-Jun-20 08:58N 38°01' E 023°30'0 0.1
2017-Jun-20 08:28N 38°01' E 023°30'1 1.7
2017-Jun-20 08:00N 38°02' E 023°30'0 0.0
2017-Jun-20 07:30N 38°02' E 023°30'0 0.0
2017-Jun-20 06:57N 38°02' E 023°30'0 0.0
2017-Jun-20 06:27N 38°02' E 023°30'0 0.0
2017-Jun-20 06:00N 38°02' E 023°30'0 0.0
2017-Jun-20 05:30N 38°02' E 023°30'0 0.0
2017-Jun-20 05:00N 38°02' E 023°30'0 0.0
2017-Jun-20 04:30N 38°02' E 023°30'0 0.0
2017-Jun-20 04:00N 38°02' E 023°30'0 0.0
2017-Jun-20 03:27N 38°02' E 023°30'0 0.0
2017-Jun-20 03:00N 38°02' E 023°30'0 0.0
2017-Jun-20 02:30N 38°02' E 023°30'0 0.0
2017-Jun-20 02:00N 38°02' E 023°30'0 0.0
2017-Jun-20 01:27N 38°02' E 023°30'0 0.0
2017-Jun-20 00:54N 38°02' E 023°30'0 0.0
2017-Jun-20 00:30N 38°02' E 023°30'0 0.0
2017-Jun-20 00:00N 38°02' E 023°30'0 0.0
2017-Jun-19 23:30N 38°02' E 023°30'0 0.0
2017-Jun-19 23:00N 38°02' E 023°30'0 0.0
2017-Jun-19 22:27N 38°02' E 023°30'0 0.0
2017-Jun-19 22:00N 38°02' E 023°30'0 0.0
2017-Jun-19 21:30N 38°02' E 023°30'0 0.0
2017-Jun-19 20:57N 38°02' E 023°30'0 0.0
2017-Jun-19 20:30N 38°02' E 023°30'0 0.0
2017-Jun-19 20:00N 38°02' E 023°30'0 0.0
2017-Jun-19 19:27N 38°02' E 023°30'0 0.0
2017-Jun-19 19:00N 38°02' E 023°30'0 0.0
2017-Jun-19 18:27N 38°02' E 023°30'0 0.0
2017-Jun-19 17:45N 38°02' E 023°30'0 0.0
2017-Jun-19 17:27N 38°02' E 023°30'0 0.0
2017-Jun-19 17:00N 38°02' E 023°30'0 0.0
2017-Jun-19 16:30N 38°02' E 023°30'0 0.0
2017-Jun-19 16:00N 38°02' E 023°30'0 0.0
2017-Jun-19 15:30N 38°02' E 023°30'0 0.0
2017-Jun-19 15:00N 38°02' E 023°30'0 0.0
2017-Jun-19 14:30N 38°02' E 023°30'0 0.0
2017-Jun-19 13:30N 38°02' E 023°30'0 0.0
2017-Jun-19 13:00N 38°02' E 023°30'0 0.0
2017-Jun-19 12:30N 38°02' E 023°30'0 0.0
2017-Jun-19 11:54N 38°02' E 023°30'0 0.0
2017-Jun-19 11:30N 38°02' E 023°30'0 0.0
2017-Jun-19 10:57N 38°02' E 023°30'0 0.0
2017-Jun-19 10:24N 38°02' E 023°30'0 0.0
2017-Jun-19 10:00N 38°02' E 023°30'0 0.0
2017-Jun-19 09:30N 38°02' E 023°30'0 0.0
2017-Jun-19 09:00N 38°02' E 023°30'0 0.0
2017-Jun-19 08:30N 38°02' E 023°30'0 0.0
2017-Jun-19 08:00N 38°02' E 023°30'0 0.0
2017-Jun-19 07:30N 38°02' E 023°30'0 0.0
2017-Jun-19 06:57N 38°02' E 023°30'0 0.0
2017-Jun-19 06:30N 38°02' E 023°30'0 0.0
2017-Jun-19 06:00N 38°02' E 023°30'0 0.0
2017-Jun-19 05:30N 38°02' E 023°30'0 0.0
2017-Jun-19 05:00N 38°02' E 023°30'0 0.0
2017-Jun-19 04:30N 38°02' E 023°30'0 0.0
2017-Jun-19 04:00N 38°02' E 023°30'0 0.0
2017-Jun-19 03:30N 38°02' E 023°30'0 0.0
2017-Jun-19 03:00N 38°02' E 023°30'0 0.0
2017-Jun-19 02:30N 38°02' E 023°30'0 0.0
2017-Jun-19 02:00N 38°02' E 023°30'0 0.0
2017-Jun-19 01:30N 38°02' E 023°30'0 0.0
2017-Jun-19 01:00N 38°02' E 023°30'0 0.0
2017-Jun-19 00:30N 38°02' E 023°30'0 0.0
2017-Jun-19 00:00N 38°02' E 023°30'0 0.0
2017-Jun-18 23:30N 38°02' E 023°30'0 0.0
2017-Jun-18 23:00N 38°02' E 023°30'0 0.0
2017-Jun-18 22:30N 38°02' E 023°30'0 0.0
2017-Jun-18 22:00N 38°02' E 023°30'0 0.0
2017-Jun-18 21:27N 38°02' E 023°30'0 0.0
2017-Jun-18 21:00N 38°02' E 023°30'0 0.0
2017-Jun-18 20:30N 38°02' E 023°30'0 0.0
2017-Jun-18 19:57N 38°02' E 023°30'0 0.0
2017-Jun-18 19:30N 38°02' E 023°30'0 0.0
2017-Jun-18 19:00N 38°02' E 023°30'0 0.0
2017-Jun-18 18:30N 38°02' E 023°30'0 0.0
2017-Jun-18 18:00N 38°02' E 023°30'0 0.0
2017-Jun-18 17:30N 38°02' E 023°30'0 0.0
2017-Jun-18 17:00N 38°02' E 023°30'0 0.0
2017-Jun-18 16:30N 38°02' E 023°30'0 0.0
2017-Jun-18 16:00N 38°02' E 023°30'0 0.0
2017-Jun-18 15:30N 38°02' E 023°30'0 0.0
2017-Jun-18 15:00N 38°02' E 023°30'0 0.0
2017-Jun-18 14:00N 38°02' E 023°30'0 0.0
2017-Jun-18 13:27N 38°02' E 023°30'0 0.0
2017-Jun-18 13:00N 38°02' E 023°30'0 0.0
2017-Jun-18 12:30N 38°02' E 023°30'0 0.0
2017-Jun-18 12:00N 38°02' E 023°30'0 0.0
2017-Jun-18 11:30N 38°02' E 023°30'0 0.0
2017-Jun-18 11:00N 38°02' E 023°30'0 0.0
2017-Jun-18 10:27N 38°02' E 023°30'0 0.0
2017-Jun-18 10:00N 38°02' E 023°30'0 0.0
2017-Jun-18 09:30N 38°02' E 023°30'0 0.0
2017-Jun-18 08:57N 38°02' E 023°30'0 0.0
2017-Jun-18 08:30N 38°02' E 023°30'0 0.0
2017-Jun-18 08:00N 38°02' E 023°30'0 0.0
2017-Jun-18 07:30N 38°02' E 023°30'0 0.0
2017-Jun-18 07:00N 38°02' E 023°30'0 0.0
2017-Jun-18 06:30N 38°02' E 023°30'0 0.0
2017-Jun-18 06:00N 38°02' E 023°30'0 0.0
2017-Jun-18 05:30N 38°02' E 023°30'0 0.0
2017-Jun-18 05:00N 38°02' E 023°30'0 0.0
2017-Jun-18 04:30N 38°02' E 023°30'0 0.0
2017-Jun-18 04:00N 38°02' E 023°30'0 0.0
2017-Jun-18 03:30N 38°02' E 023°30'0 0.0
2017-Jun-18 03:00N 38°02' E 023°30'0 0.0
2017-Jun-18 02:27N 38°02' E 023°30'0 0.0
2017-Jun-18 02:00N 38°02' E 023°30'0 0.0
2017-Jun-18 01:30N 38°02' E 023°30'0 0.0
2017-Jun-18 01:00N 38°02' E 023°30'0 0.0
2017-Jun-18 00:30N 38°02' E 023°30'0 0.0
2017-Jun-18 00:00N 38°02' E 023°30'0 0.0
2017-Jun-17 23:30N 38°02' E 023°30'0 0.0
2017-Jun-17 23:00N 38°02' E 023°30'0 0.0
2017-Jun-17 22:30N 38°02' E 023°30'0 0.0
2017-Jun-17 22:00N 38°02' E 023°30'0 0.0
2017-Jun-17 21:27N 38°02' E 023°30'0 0.0
2017-Jun-17 21:00N 38°02' E 023°30'0 0.0
2017-Jun-17 20:30N 38°02' E 023°30'0 0.0
2017-Jun-17 20:00N 38°02' E 023°30'0 0.0
2017-Jun-17 19:30N 38°02' E 023°30'0 0.0
2017-Jun-17 19:00N 38°02' E 023°30'0 0.0
2017-Jun-17 18:30N 38°02' E 023°30'0 0.0
2017-Jun-17 18:00N 38°02' E 023°30'0 0.0
2017-Jun-17 17:30N 38°02' E 023°30'0 0.0
2017-Jun-17 17:00N 38°02' E 023°30'0 0.0
2017-Jun-17 16:30N 38°02' E 023°30'0 0.0
2017-Jun-17 16:00N 38°02' E 023°30'0 0.0
2017-Jun-17 15:30N 38°02' E 023°30'0 0.0
2017-Jun-17 15:00N 38°02' E 023°30'0 0.0
2017-Jun-17 14:27N 38°02' E 023°30'0 0.0
2017-Jun-17 13:30N 38°02' E 023°30'0 0.0
2017-Jun-17 13:00N 38°02' E 023°30'0 0.0
2017-Jun-17 12:30N 38°02' E 023°30'0 0.0
2017-Jun-17 12:00N 38°02' E 023°30'0 0.0
2017-Jun-17 11:30N 38°02' E 023°30'0 0.0
2017-Jun-17 11:00N 38°02' E 023°30'0 0.0
2017-Jun-17 10:24N 38°02' E 023°30'0 0.0
2017-Jun-17 09:57N 38°02' E 023°30'0 0.0
2017-Jun-17 09:30N 38°02' E 023°30'0 0.0
2017-Jun-17 09:00N 38°02' E 023°30'0 0.0
2017-Jun-17 08:30N 38°02' E 023°30'0 0.0
2017-Jun-17 08:00N 38°02' E 023°30'0 0.0
2017-Jun-17 07:30N 38°02' E 023°30'0 0.0
2017-Jun-17 06:57N 38°02' E 023°30'0 0.0
2017-Jun-17 06:30N 38°02' E 023°30'0 0.0
2017-Jun-17 06:00N 38°02' E 023°30'0 0.0
2017-Jun-17 05:27N 38°02' E 023°30'0 0.0
2017-Jun-17 05:00N 38°02' E 023°30'0 0.0
2017-Jun-17 04:30N 38°02' E 023°30'0 0.0
2017-Jun-17 04:00N 38°02' E 023°30'0 0.0
2017-Jun-17 03:30N 38°02' E 023°30'0 0.0
2017-Jun-17 03:00N 38°02' E 023°30'0 0.0
2017-Jun-17 02:30N 38°02' E 023°30'0 0.0
2017-Jun-17 02:00N 38°02' E 023°30'0 0.0
2017-Jun-17 01:30N 38°02' E 023°30'0 0.0
2017-Jun-17 01:00N 38°02' E 023°30'0 0.0
2017-Jun-17 00:30N 38°02' E 023°30'0 0.0
2017-Jun-17 00:00N 38°02' E 023°30'0 0.0
2017-Jun-16 23:30N 38°02' E 023°30'0 0.0
2017-Jun-16 23:00N 38°02' E 023°30'0 0.0
2017-Jun-16 22:30N 38°02' E 023°30'0 0.0
2017-Jun-16 21:54N 38°02' E 023°30'0 0.0
2017-Jun-16 21:30N 38°02' E 023°30'0 0.0
2017-Jun-16 21:00N 38°02' E 023°30'0 0.0
2017-Jun-16 20:30N 38°02' E 023°30'0 0.0
2017-Jun-16 20:00N 38°02' E 023°30'0 0.0
2017-Jun-16 19:30N 38°02' E 023°30'0 0.0
2017-Jun-16 18:54N 38°02' E 023°30'0 0.0
2017-Jun-16 18:30N 38°02' E 023°30'0 0.0
2017-Jun-16 18:00N 38°02' E 023°30'0 0.0
2017-Jun-16 17:30N 38°02' E 023°30'0 0.0
2017-Jun-16 17:00N 38°02' E 023°30'0 0.0
2017-Jun-16 16:30N 38°02' E 023°30'0 0.0
2017-Jun-16 16:00N 38°02' E 023°30'0 0.0
2017-Jun-16 15:30N 38°02' E 023°30'0 0.0
2017-Jun-16 15:00N 38°02' E 023°30'0 0.0
2017-Jun-16 14:00N 38°02' E 023°30'0 0.0
2017-Jun-16 13:21N 38°02' E 023°30'0 0.0
2017-Jun-16 13:00N 38°02' E 023°30'0 0.0
2017-Jun-16 12:27N 38°02' E 023°30'0 0.0
2017-Jun-16 12:00N 38°02' E 023°30'0 0.0
2017-Jun-16 11:30N 38°02' E 023°30'0 0.0
2017-Jun-16 11:00N 38°02' E 023°30'0 0.0
2017-Jun-16 10:30N 38°02' E 023°30'0 0.0
2017-Jun-16 10:00N 38°02' E 023°30'0 0.0
2017-Jun-16 09:30N 38°02' E 023°30'0 0.0
2017-Jun-16 09:00N 38°02' E 023°30'0 0.0
2017-Jun-16 08:30N 38°02' E 023°30'0 0.0
2017-Jun-16 08:00N 38°02' E 023°30'0 0.0
2017-Jun-16 07:30N 38°02' E 023°30'0 0.0
2017-Jun-16 07:00N 38°02' E 023°30'0 0.0
2017-Jun-16 06:27N 38°02' E 023°30'0 0.0
2017-Jun-16 06:00N 38°02' E 023°30'0 0.0
2017-Jun-16 05:30N 38°02' E 023°30'0 0.0
2017-Jun-16 05:00N 38°02' E 023°30'0 0.0
2017-Jun-16 04:30N 38°02' E 023°30'0 0.0
2017-Jun-16 04:00N 38°02' E 023°30'0 0.0
2017-Jun-16 03:27N 38°02' E 023°30'0 0.0
2017-Jun-16 03:00N 38°02' E 023°30'0 0.0
2017-Jun-16 02:30N 38°02' E 023°30'0 0.0
2017-Jun-16 02:00N 38°02' E 023°30'0 0.0
2017-Jun-16 01:30N 38°02' E 023°30'0 0.0
2017-Jun-16 01:00N 38°02' E 023°30'0 0.0
2017-Jun-16 00:30N 38°02' E 023°30'0 0.0
2017-Jun-16 00:00N 38°02' E 023°30'0 0.0
2017-Jun-15 23:30N 38°02' E 023°30'0 0.0
2017-Jun-15 22:57N 38°02' E 023°30'0 0.0
2017-Jun-15 22:30N 38°02' E 023°30'0 0.0
2017-Jun-15 22:00N 38°02' E 023°30'0 0.0
2017-Jun-15 21:30N 38°02' E 023°30'0 0.0
2017-Jun-15 21:00N 38°02' E 023°30'0 0.0
2017-Jun-15 20:27N 38°02' E 023°30'0 0.0
2017-Jun-15 19:57N 38°02' E 023°30'0 0.0
2017-Jun-15 19:30N 38°02' E 023°30'0 0.0
2017-Jun-15 19:00N 38°02' E 023°30'0 0.0
2017-Jun-15 18:30N 38°02' E 023°30'0 0.0
2017-Jun-15 18:00N 38°02' E 023°30'0 0.0
2017-Jun-15 17:30N 38°02' E 023°30'0 0.0
2017-Jun-15 17:00N 38°02' E 023°30'0 0.0
2017-Jun-15 16:27N 38°02' E 023°30'0 0.0
2017-Jun-15 15:57N 38°02' E 023°30'0 0.0
2017-Jun-15 15:27N 38°02' E 023°30'0 0.0
2017-Jun-15 14:57N 38°02' E 023°30'0 0.0
2017-Jun-15 14:30N 38°02' E 023°30'0 0.0
2017-Jun-15 13:30N 38°02' E 023°30'0 0.0
2017-Jun-15 12:57N 38°02' E 023°30'0 0.0
2017-Jun-15 12:30N 38°02' E 023°30'0 0.0
2017-Jun-15 12:00N 38°02' E 023°30'0 0.0
2017-Jun-15 11:27N 38°02' E 023°30'0 0.0
2017-Jun-15 11:00N 38°02' E 023°30'0 0.0
2017-Jun-15 10:30N 38°02' E 023°30'0 0.0
2017-Jun-15 10:00N 38°02' E 023°30'0 0.0
2017-Jun-15 09:30N 38°02' E 023°30'0 0.0
2017-Jun-15 09:00N 38°02' E 023°30'0 0.0
2017-Jun-15 08:30N 38°02' E 023°30'0 0.0
2017-Jun-15 07:48N 38°02' E 023°30'0 0.0
2017-Jun-15 07:30N 38°02' E 023°30'0 0.0
2017-Jun-15 07:00N 38°02' E 023°30'0 0.0
2017-Jun-15 06:30N 38°02' E 023°30'0 0.0
2017-Jun-15 06:00N 38°02' E 023°30'0 0.0
2017-Jun-15 05:30N 38°02' E 023°30'0 0.0
2017-Jun-15 05:00N 38°02' E 023°30'0 0.0
2017-Jun-15 04:30N 38°02' E 023°30'0 0.0
2017-Jun-15 04:00N 38°02' E 023°30'0 0.0
2017-Jun-15 03:30N 38°02' E 023°30'0 0.0
2017-Jun-15 03:00N 38°02' E 023°30'0 0.0
2017-Jun-15 02:30N 38°02' E 023°30'0 0.0
2017-Jun-15 02:00N 38°02' E 023°30'0 0.0
2017-Jun-15 01:30N 38°02' E 023°30'0 0.0
2017-Jun-15 01:00N 38°02' E 023°30'0 0.0
2017-Jun-15 00:30N 38°02' E 023°30'0 0.0
2017-Jun-15 00:00N 38°02' E 023°30'0 0.0
2017-Jun-14 23:30N 38°02' E 023°30'0 0.0
2017-Jun-14 23:00N 38°02' E 023°30'0 0.0
2017-Jun-14 22:30N 38°02' E 023°30'0 0.0
2017-Jun-14 22:00N 38°02' E 023°30'0 0.0
2017-Jun-14 21:30N 38°02' E 023°30'0 0.0
2017-Jun-14 21:00N 38°02' E 023°30'0 0.0
2017-Jun-14 20:30N 38°02' E 023°30'0 0.0
2017-Jun-14 20:00N 38°02' E 023°30'0 0.0
2017-Jun-14 19:30N 38°02' E 023°30'0 0.0
2017-Jun-14 19:00N 38°02' E 023°30'0 0.0
2017-Jun-14 18:30N 38°02' E 023°30'0 0.0
2017-Jun-14 18:00N 38°02' E 023°30'  
Track history (hours):
 
Tides and Currents Weather Stations Pressure Air Temp Water Temp Dewpoint Dewpoint Depression Visibility Wind Speed Wind Dir Waves Ship Positions

Eko 2

Last reported at 2017-Jun-24 17:31 UTC. Time now 2017-Jun-24 17:30 UTC.
Position N 37°09' E 025°07'.

Length 89 m; draft 4.3 m.

Type: Ship (hazmat cat A). MMSI: 240827000.

Date/timePositionNaut miles runAvg speedWind from/ knotsBaromVisibWave heightAir tempDewpointWater temp
2017-Jun-24 17:31N 37°09' E 025°07'612.1
2017-Jun-24 17:00N 37°15' E 025°07'611.9
2017-Jun-24 16:31N 37°21' E 025°08'612.1
2017-Jun-24 16:01N 37°27' E 025°09'510.4
2017-Jun-24 15:30N 37°32' E 025°09'0 0.1
2017-Jun-24 15:00N 37°32' E 025°09'0 0.0
2017-Jun-24 14:00N 37°32' E 025°09'0 0.0
2017-Jun-24 13:30N 37°32' E 025°09'0 0.0
2017-Jun-24 13:00N 37°32' E 025°09'0 0.0
2017-Jun-24 12:21N 37°32' E 025°09'0 0.0
2017-Jun-24 12:00N 37°32' E 025°09'0 0.0
2017-Jun-24 11:30N 37°32' E 025°09'0 0.0
2017-Jun-24 11:00N 37°32' E 025°09'0 0.0
2017-Jun-24 10:30N 37°32' E 025°09'0 0.0
2017-Jun-24 10:00N 37°32' E 025°09'0 0.0
2017-Jun-24 09:30N 37°32' E 025°09'0 0.0
2017-Jun-24 09:00N 37°32' E 025°09'0 0.0
2017-Jun-24 08:24N 37°32' E 025°09'0 0.0
2017-Jun-24 08:00N 37°32' E 025°09'0 0.0
2017-Jun-24 07:30N 37°32' E 025°09'0 0.0
2017-Jun-24 07:00N 37°32' E 025°09'1 1.1
2017-Jun-24 06:30N 37°32' E 025°09'5 9.9
2017-Jun-24 06:00N 37°29' E 025°15'4 8.1
2017-Jun-24 05:30N 37°28' E 025°20'0 0.0
2017-Jun-24 05:00N 37°28' E 025°20'0 0.0
2017-Jun-24 04:30N 37°28' E 025°20'0 0.0
2017-Jun-24 04:00N 37°28' E 025°20'0 0.0
2017-Jun-24 03:30N 37°28' E 025°20'0 0.0
2017-Jun-24 03:00N 37°28' E 025°20'0 0.0
2017-Jun-24 02:30N 37°28' E 025°20'0 0.0
2017-Jun-24 02:00N 37°28' E 025°20'0 0.0
2017-Jun-24 01:30N 37°28' E 025°20'0 0.0
2017-Jun-24 00:57N 37°28' E 025°20'0 0.0
2017-Jun-24 00:27N 37°28' E 025°20'0 0.0
2017-Jun-24 00:00N 37°28' E 025°20'0 0.0
2017-Jun-23 23:30N 37°28' E 025°20'0 0.0
2017-Jun-23 23:00N 37°28' E 025°20'0 0.0
2017-Jun-23 22:30N 37°28' E 025°20'0 0.0
2017-Jun-23 22:00N 37°28' E 025°20'1 2.4
2017-Jun-23 21:31N 37°28' E 025°18'510.1
2017-Jun-23 21:00N 37°27' E 025°12'611.4
2017-Jun-23 20:30N 37°25' E 025°05'611.3
2017-Jun-23 20:00N 37°21' E 024°60'611.4
2017-Jun-23 19:31N 37°17' E 024°54'611.5
2017-Jun-23 19:01N 37°13' E 024°49'44 2.1
2017-Jun-22 22:25N 37°30' E 023°58'410.4
2017-Jun-22 22:01N 37°32' E 023°54'510.3
2017-Jun-22 21:30N 37°35' E 023°49'510.5
2017-Jun-22 21:00N 37°39' E 023°44'510.0
2017-Jun-22 20:30N 37°43' E 023°40'5 9.9
2017-Jun-22 20:00N 37°47' E 023°38'5 9.5
2017-Jun-22 19:30N 37°52' E 023°36'5 9.7
2017-Jun-22 19:00N 37°57' E 023°36'4 8.5
2017-Jun-22 18:30N 37°60' E 023°33'3 5.3
2017-Jun-22 18:01N 38°02' E 023°35'0 0.6
2017-Jun-22 17:28N 38°02' E 023°36'0 0.0
2017-Jun-22 16:58N 38°02' E 023°36'0 0.0
2017-Jun-22 16:28N 38°02' E 023°36'0 0.0
2017-Jun-22 15:55N 38°02' E 023°36'0 0.0
2017-Jun-22 15:28N 38°02' E 023°36'0 0.0
2017-Jun-22 14:58N 38°02' E 023°36'0 0.0
2017-Jun-22 14:28N 38°02' E 023°36'0 0.0
2017-Jun-22 13:28N 38°02' E 023°36'0 0.0
2017-Jun-22 12:58N 38°02' E 023°36'0 0.0
2017-Jun-22 12:28N 38°02' E 023°36'0 0.0
2017-Jun-22 11:58N 38°02' E 023°36'0 0.0
2017-Jun-22 11:25N 38°02' E 023°36'0 0.0
2017-Jun-22 10:58N 38°02' E 023°36'0 0.0
2017-Jun-22 10:28N 38°02' E 023°36'0 0.0
2017-Jun-22 09:58N 38°02' E 023°36'0 0.0
2017-Jun-22 09:28N 38°02' E 023°36'0 0.0
2017-Jun-22 08:58N 38°02' E 023°36'0 0.0
2017-Jun-22 08:29N 38°02' E 023°36'2 3.8
2017-Jun-22 08:00N 38°01' E 023°34'1 2.2
2017-Jun-22 07:29N 38°02' E 023°32'0 0.0
2017-Jun-22 06:59N 38°02' E 023°32'0 0.0
2017-Jun-22 06:29N 38°02' E 023°32'0 0.0
2017-Jun-22 05:59N 38°02' E 023°32'0 0.0
2017-Jun-22 05:29N 38°02' E 023°32'0 0.0
2017-Jun-22 04:59N 38°02' E 023°32'0 0.0
2017-Jun-22 04:29N 38°02' E 023°32'0 0.0
2017-Jun-22 03:59N 38°02' E 023°32'0 0.0
2017-Jun-22 03:29N 38°02' E 023°32'0 0.0
2017-Jun-22 02:56N 38°02' E 023°32'0 0.0
2017-Jun-22 02:29N 38°02' E 023°32'0 0.0
2017-Jun-22 01:59N 38°02' E 023°32'0 0.0
2017-Jun-22 01:29N 38°02' E 023°32'0 0.0
2017-Jun-22 00:59N 38°02' E 023°32'0 0.0
2017-Jun-22 00:29N 38°02' E 023°32'0 0.0
2017-Jun-21 23:59N 38°02' E 023°32'0 0.0
2017-Jun-21 23:29N 38°02' E 023°32'0 0.0
2017-Jun-21 22:59N 38°02' E 023°32'0 0.0
2017-Jun-21 22:29N 38°02' E 023°32'0 0.0
2017-Jun-21 21:59N 38°02' E 023°32'0 0.0
2017-Jun-21 21:29N 38°02' E 023°32'0 0.0
2017-Jun-21 20:59N 38°02' E 023°32'0 0.0
2017-Jun-21 20:29N 38°02' E 023°32'0 0.0
2017-Jun-21 19:59N 38°02' E 023°32'0 0.0
2017-Jun-21 19:29N 38°02' E 023°32'0 0.0
2017-Jun-21 18:59N 38°02' E 023°32'0 0.0
2017-Jun-21 18:29N 38°02' E 023°32'0 0.0
2017-Jun-21 17:59N 38°02' E 023°32'0 0.0
2017-Jun-21 17:29N 38°02' E 023°32'0 0.0
2017-Jun-21 16:59N 38°02' E 023°32'0 0.0
2017-Jun-21 16:29N 38°02' E 023°32'0 0.0
2017-Jun-21 15:59N 38°02' E 023°32'0 0.0
2017-Jun-21 15:29N 38°02' E 023°32'0 0.0
2017-Jun-21 14:59N 38°02' E 023°32'0 0.0
2017-Jun-21 14:29N 38°02' E 023°32'0 0.0
2017-Jun-21 13:29N 38°02' E 023°32'0 0.0
2017-Jun-21 12:59N 38°02' E 023°32'0 0.0
2017-Jun-21 12:29N 38°02' E 023°32'0 0.0
2017-Jun-21 11:59N 38°02' E 023°32'0 0.0
2017-Jun-21 11:29N 38°02' E 023°32'0 0.0
2017-Jun-21 10:59N 38°02' E 023°32'0 0.0
2017-Jun-21 10:29N 38°02' E 023°32'0 0.0
2017-Jun-21 09:59N 38°02' E 023°32'0 0.0
2017-Jun-21 09:29N 38°02' E 023°32'0 0.0
2017-Jun-21 08:59N 38°02' E 023°32'0 0.0
2017-Jun-21 08:29N 38°02' E 023°32'0 0.0
2017-Jun-21 07:59N 38°02' E 023°32'0 0.0
2017-Jun-21 07:29N 38°02' E 023°32'0 0.0
2017-Jun-21 06:59N 38°02' E 023°32'0 0.0
2017-Jun-21 06:29N 38°02' E 023°32'0 0.0
2017-Jun-21 05:59N 38°02' E 023°32'0 0.0
2017-Jun-21 05:29N 38°02' E 023°32'0 0.0
2017-Jun-21 04:56N 38°02' E 023°32'0 0.0
2017-Jun-21 04:29N 38°02' E 023°32'0 0.0
2017-Jun-21 03:59N 38°02' E 023°32'0 0.0
2017-Jun-21 03:29N 38°02' E 023°32'0 0.0
2017-Jun-21 02:59N 38°02' E 023°32'0 0.0
2017-Jun-21 02:29N 38°02' E 023°32'0 0.0
2017-Jun-21 01:59N 38°02' E 023°32'0 0.0
2017-Jun-21 01:29N 38°02' E 023°32'0 0.0
2017-Jun-21 00:59N 38°02' E 023°32'0 0.0
2017-Jun-21 00:29N 38°02' E 023°32'0 0.0
2017-Jun-20 23:59N 38°02' E 023°32'0 0.0
2017-Jun-20 23:29N 38°02' E 023°32'0 0.0
2017-Jun-20 22:59N 38°02' E 023°32'0 0.0
2017-Jun-20 22:29N 38°02' E 023°32'0 0.0
2017-Jun-20 21:59N 38°02' E 023°32'0 0.0
2017-Jun-20 21:29N 38°02' E 023°32'0 0.0
2017-Jun-20 20:59N 38°02' E 023°32'0 0.0
2017-Jun-20 20:29N 38°02' E 023°32'0 0.0
2017-Jun-20 19:59N 38°02' E 023°32'0 0.0
2017-Jun-20 19:29N 38°02' E 023°32'0 0.0
2017-Jun-20 18:59N 38°02' E 023°32'0 0.0
2017-Jun-20 18:29N 38°02' E 023°32'0 0.0
2017-Jun-20 17:59N 38°02' E 023°32'0 0.0
2017-Jun-20 17:29N 38°02' E 023°32'0 0.0
2017-Jun-20 16:59N 38°02' E 023°32'0 0.0
2017-Jun-20 16:29N 38°02' E 023°32'0 0.0
2017-Jun-20 15:59N 38°02' E 023°32'0 0.0
2017-Jun-20 15:29N 38°02' E 023°32'0 0.0
2017-Jun-20 14:59N 38°02' E 023°32'0 0.0
2017-Jun-20 14:29N 38°02' E 023°32'0 0.0
2017-Jun-20 13:29N 38°02' E 023°32'0 0.0
2017-Jun-20 12:59N 38°02' E 023°32'0 0.0
2017-Jun-20 12:30N 38°02' E 023°32'1 2.8
2017-Jun-20 12:00N 38°01' E 023°33'2 4.3
2017-Jun-20 11:30N 38°01' E 023°31'2 3.6
2017-Jun-20 11:01N 38°01' E 023°33'1 2.4
2017-Jun-20 10:31N 38°02' E 023°32'1 2.2
2017-Jun-20 10:00N 38°01' E 023°32'2 3.2
2017-Jun-20 09:28N 38°01' E 023°30'0 0.1
2017-Jun-20 08:58N 38°01' E 023°30'0 0.1
2017-Jun-20 08:28N 38°01' E 023°30'1 1.7
2017-Jun-20 08:00N 38°02' E 023°30'0 0.0
2017-Jun-20 07:30N 38°02' E 023°30'0 0.0
2017-Jun-20 06:57N 38°02' E 023°30'0 0.0
2017-Jun-20 06:27N 38°02' E 023°30'0 0.0
2017-Jun-20 06:00N 38°02' E 023°30'0 0.0
2017-Jun-20 05:30N 38°02' E 023°30'0 0.0
2017-Jun-20 05:00N 38°02' E 023°30'0 0.0
2017-Jun-20 04:30N 38°02' E 023°30'0 0.0
2017-Jun-20 04:00N 38°02' E 023°30'0 0.0
2017-Jun-20 03:27N 38°02' E 023°30'0 0.0
2017-Jun-20 03:00N 38°02' E 023°30'0 0.0
2017-Jun-20 02:30N 38°02' E 023°30'0 0.0
2017-Jun-20 02:00N 38°02' E 023°30'0 0.0
2017-Jun-20 01:27N 38°02' E 023°30'0 0.0
2017-Jun-20 00:54N 38°02' E 023°30'0 0.0
2017-Jun-20 00:30N 38°02' E 023°30'0 0.0
2017-Jun-20 00:00N 38°02' E 023°30'0 0.0
2017-Jun-19 23:30N 38°02' E 023°30'0 0.0
2017-Jun-19 23:00N 38°02' E 023°30'0 0.0
2017-Jun-19 22:27N 38°02' E 023°30'0 0.0
2017-Jun-19 22:00N 38°02' E 023°30'0 0.0
2017-Jun-19 21:30N 38°02' E 023°30'0 0.0
2017-Jun-19 20:57N 38°02' E 023°30'0 0.0
2017-Jun-19 20:30N 38°02' E 023°30'0 0.0
2017-Jun-19 20:00N 38°02' E 023°30'0 0.0
2017-Jun-19 19:27N 38°02' E 023°30'0 0.0
2017-Jun-19 19:00N 38°02' E 023°30'0 0.0
2017-Jun-19 18:27N 38°02' E 023°30'0 0.0
2017-Jun-19 17:45N 38°02' E 023°30'0 0.0
2017-Jun-19 17:27N 38°02' E 023°30'0 0.0
2017-Jun-19 17:00N 38°02' E 023°30'0 0.0
2017-Jun-19 16:30N 38°02' E 023°30'0 0.0
2017-Jun-19 16:00N 38°02' E 023°30'0 0.0
2017-Jun-19 15:30N 38°02' E 023°30'0 0.0
2017-Jun-19 15:00N 38°02' E 023°30'0 0.0
2017-Jun-19 14:30N 38°02' E 023°30'0 0.0
2017-Jun-19 13:30N 38°02' E 023°30'0 0.0
2017-Jun-19 13:00N 38°02' E 023°30'0 0.0
2017-Jun-19 12:30N 38°02' E 023°30'0 0.0
2017-Jun-19 11:54N 38°02' E 023°30'0 0.0
2017-Jun-19 11:30N 38°02' E 023°30'0 0.0
2017-Jun-19 10:57N 38°02' E 023°30'0 0.0
2017-Jun-19 10:24N 38°02' E 023°30'0 0.0
2017-Jun-19 10:00N 38°02' E 023°30'0 0.0
2017-Jun-19 09:30N 38°02' E 023°30'0 0.0
2017-Jun-19 09:00N 38°02' E 023°30'0 0.0
2017-Jun-19 08:30N 38°02' E 023°30'0 0.0
2017-Jun-19 08:00N 38°02' E 023°30'0 0.0
2017-Jun-19 07:30N 38°02' E 023°30'0 0.0
2017-Jun-19 06:57N 38°02' E 023°30'0 0.0
2017-Jun-19 06:30N 38°02' E 023°30'0 0.0
2017-Jun-19 06:00N 38°02' E 023°30'0 0.0
2017-Jun-19 05:30N 38°02' E 023°30'0 0.0
2017-Jun-19 05:00N 38°02' E 023°30'0 0.0
2017-Jun-19 04:30N 38°02' E 023°30'0 0.0
2017-Jun-19 04:00N 38°02' E 023°30'0 0.0
2017-Jun-19 03:30N 38°02' E 023°30'0 0.0
2017-Jun-19 03:00N 38°02' E 023°30'0 0.0
2017-Jun-19 02:30N 38°02' E 023°30'0 0.0
2017-Jun-19 02:00N 38°02' E 023°30'0 0.0
2017-Jun-19 01:30N 38°02' E 023°30'0 0.0
2017-Jun-19 01:00N 38°02' E 023°30'0 0.0
2017-Jun-19 00:30N 38°02' E 023°30'0 0.0
2017-Jun-19 00:00N 38°02' E 023°30'0 0.0
2017-Jun-18 23:30N 38°02' E 023°30'0 0.0
2017-Jun-18 23:00N 38°02' E 023°30'0 0.0
2017-Jun-18 22:30N 38°02' E 023°30'0 0.0
2017-Jun-18 22:00N 38°02' E 023°30'0 0.0
2017-Jun-18 21:27N 38°02' E 023°30'0 0.0
2017-Jun-18 21:00N 38°02' E 023°30'0 0.0
2017-Jun-18 20:30N 38°02' E 023°30'0 0.0
2017-Jun-18 19:57N 38°02' E 023°30'0 0.0
2017-Jun-18 19:30N 38°02' E 023°30'0 0.0
2017-Jun-18 19:00N 38°02' E 023°30'0 0.0
2017-Jun-18 18:30N 38°02' E 023°30'0 0.0
2017-Jun-18 18:00N 38°02' E 023°30'0 0.0
2017-Jun-18 17:30N 38°02' E 023°30'0 0.0
2017-Jun-18 17:00N 38°02' E 023°30'0 0.0
2017-Jun-18 16:30N 38°02' E 023°30'0 0.0
2017-Jun-18 16:00N 38°02' E 023°30'0 0.0
2017-Jun-18 15:30N 38°02' E 023°30'0 0.0
2017-Jun-18 15:00N 38°02' E 023°30'0 0.0
2017-Jun-18 14:00N 38°02' E 023°30'0 0.0
2017-Jun-18 13:27N 38°02' E 023°30'0 0.0
2017-Jun-18 13:00N 38°02' E 023°30'0 0.0
2017-Jun-18 12:30N 38°02' E 023°30'0 0.0
2017-Jun-18 12:00N 38°02' E 023°30'0 0.0
2017-Jun-18 11:30N 38°02' E 023°30'0 0.0
2017-Jun-18 11:00N 38°02' E 023°30'0 0.0
2017-Jun-18 10:27N 38°02' E 023°30'0 0.0
2017-Jun-18 10:00N 38°02' E 023°30'0 0.0
2017-Jun-18 09:30N 38°02' E 023°30'0 0.0
2017-Jun-18 08:57N 38°02' E 023°30'0 0.0
2017-Jun-18 08:30N 38°02' E 023°30'0 0.0
2017-Jun-18 08:00N 38°02' E 023°30'0 0.0
2017-Jun-18 07:30N 38°02' E 023°30'0 0.0
2017-Jun-18 07:00N 38°02' E 023°30'0 0.0
2017-Jun-18 06:30N 38°02' E 023°30'0 0.0
2017-Jun-18 06:00N 38°02' E 023°30'0 0.0
2017-Jun-18 05:30N 38°02' E 023°30'0 0.0
2017-Jun-18 05:00N 38°02' E 023°30'0 0.0
2017-Jun-18 04:30N 38°02' E 023°30'0 0.0
2017-Jun-18 04:00N 38°02' E 023°30'0 0.0
2017-Jun-18 03:30N 38°02' E 023°30'0 0.0
2017-Jun-18 03:00N 38°02' E 023°30'0 0.0
2017-Jun-18 02:27N 38°02' E 023°30'0 0.0
2017-Jun-18 02:00N 38°02' E 023°30'0 0.0
2017-Jun-18 01:30N 38°02' E 023°30'0 0.0
2017-Jun-18 01:00N 38°02' E 023°30'0 0.0
2017-Jun-18 00:30N 38°02' E 023°30'0 0.0
2017-Jun-18 00:00N 38°02' E 023°30'0 0.0
2017-Jun-17 23:30N 38°02' E 023°30'0 0.0
2017-Jun-17 23:00N 38°02' E 023°30'0 0.0
2017-Jun-17 22:30N 38°02' E 023°30'0 0.0
2017-Jun-17 22:00N 38°02' E 023°30'0 0.0
2017-Jun-17 21:27N 38°02' E 023°30'0 0.0
2017-Jun-17 21:00N 38°02' E 023°30'0 0.0
2017-Jun-17 20:30N 38°02' E 023°30'0 0.0
2017-Jun-17 20:00N 38°02' E 023°30'0 0.0
2017-Jun-17 19:30N 38°02' E 023°30'0 0.0
2017-Jun-17 19:00N 38°02' E 023°30'0 0.0
2017-Jun-17 18:30N 38°02' E 023°30'0 0.0
2017-Jun-17 18:00N 38°02' E 023°30'0 0.0
2017-Jun-17 17:30N 38°02' E 023°30'0 0.0
2017-Jun-17 17:00N 38°02' E 023°30'0 0.0
2017-Jun-17 16:30N 38°02' E 023°30'0 0.0
2017-Jun-17 16:00N 38°02' E 023°30'0 0.0
2017-Jun-17 15:30N 38°02' E 023°30'0 0.0
2017-Jun-17 15:00N 38°02' E 023°30'0 0.0
2017-Jun-17 14:27N 38°02' E 023°30'0 0.0
2017-Jun-17 13:30N 38°02' E 023°30'0 0.0
2017-Jun-17 13:00N 38°02' E 023°30'0 0.0
2017-Jun-17 12:30N 38°02' E 023°30'0 0.0
2017-Jun-17 12:00N 38°02' E 023°30'0 0.0
2017-Jun-17 11:30N 38°02' E 023°30'0 0.0
2017-Jun-17 11:00N 38°02' E 023°30'0 0.0
2017-Jun-17 10:24N 38°02' E 023°30'0 0.0
2017-Jun-17 09:57N 38°02' E 023°30'0 0.0
2017-Jun-17 09:30N 38°02' E 023°30'0 0.0
2017-Jun-17 09:00N 38°02' E 023°30'0 0.0
2017-Jun-17 08:30N 38°02' E 023°30'0 0.0
2017-Jun-17 08:00N 38°02' E 023°30'0 0.0
2017-Jun-17 07:30N 38°02' E 023°30'0 0.0
2017-Jun-17 06:57N 38°02' E 023°30'0 0.0
2017-Jun-17 06:30N 38°02' E 023°30'0 0.0
2017-Jun-17 06:00N 38°02' E 023°30'0 0.0
2017-Jun-17 05:27N 38°02' E 023°30'0 0.0
2017-Jun-17 05:00N 38°02' E 023°30'0 0.0
2017-Jun-17 04:30N 38°02' E 023°30'0 0.0
2017-Jun-17 04:00N 38°02' E 023°30'0 0.0
2017-Jun-17 03:30N 38°02' E 023°30'0 0.0
2017-Jun-17 03:00N 38°02' E 023°30'0 0.0
2017-Jun-17 02:30N 38°02' E 023°30'0 0.0
2017-Jun-17 02:00N 38°02' E 023°30'0 0.0
2017-Jun-17 01:30N 38°02' E 023°30'0 0.0
2017-Jun-17 01:00N 38°02' E 023°30'0 0.0
2017-Jun-17 00:30N 38°02' E 023°30'0 0.0
2017-Jun-17 00:00N 38°02' E 023°30'0 0.0
2017-Jun-16 23:30N 38°02' E 023°30'0 0.0
2017-Jun-16 23:00N 38°02' E 023°30'0 0.0
2017-Jun-16 22:30N 38°02' E 023°30'0 0.0
2017-Jun-16 21:54N 38°02' E 023°30'0 0.0
2017-Jun-16 21:30N 38°02' E 023°30'0 0.0
2017-Jun-16 21:00N 38°02' E 023°30'0 0.0
2017-Jun-16 20:30N 38°02' E 023°30'0 0.0
2017-Jun-16 20:00N 38°02' E 023°30'0 0.0
2017-Jun-16 19:30N 38°02' E 023°30'0 0.0
2017-Jun-16 18:54N 38°02' E 023°30'0 0.0
2017-Jun-16 18:30N 38°02' E 023°30'0 0.0
2017-Jun-16 18:00N 38°02' E 023°30'0 0.0
2017-Jun-16 17:30N 38°02' E 023°30'0 0.0
2017-Jun-16 17:00N 38°02' E 023°30'0 0.0
2017-Jun-16 16:30N 38°02' E 023°30'0 0.0
2017-Jun-16 16:00N 38°02' E 023°30'0 0.0
2017-Jun-16 15:30N 38°02' E 023°30'0 0.0
2017-Jun-16 15:00N 38°02' E 023°30'0 0.0
2017-Jun-16 14:00N 38°02' E 023°30'0 0.0
2017-Jun-16 13:21N 38°02' E 023°30'0 0.0
2017-Jun-16 13:00N 38°02' E 023°30'0 0.0
2017-Jun-16 12:27N 38°02' E 023°30'0 0.0
2017-Jun-16 12:00N 38°02' E 023°30'0 0.0
2017-Jun-16 11:30N 38°02' E 023°30'0 0.0
2017-Jun-16 11:00N 38°02' E 023°30'0 0.0
2017-Jun-16 10:30N 38°02' E 023°30'0 0.0
2017-Jun-16 10:00N 38°02' E 023°30'0 0.0
2017-Jun-16 09:30N 38°02' E 023°30'0 0.0
2017-Jun-16 09:00N 38°02' E 023°30'0 0.0
2017-Jun-16 08:30N 38°02' E 023°30'0 0.0
2017-Jun-16 08:00N 38°02' E 023°30'0 0.0
2017-Jun-16 07:30N 38°02' E 023°30'0 0.0
2017-Jun-16 07:00N 38°02' E 023°30'0 0.0
2017-Jun-16 06:27N 38°02' E 023°30'0 0.0
2017-Jun-16 06:00N 38°02' E 023°30'0 0.0
2017-Jun-16 05:30N 38°02' E 023°30'0 0.0
2017-Jun-16 05:00N 38°02' E 023°30'0 0.0
2017-Jun-16 04:30N 38°02' E 023°30'0 0.0
2017-Jun-16 04:00N 38°02' E 023°30'0 0.0
2017-Jun-16 03:27N 38°02' E 023°30'0 0.0
2017-Jun-16 03:00N 38°02' E 023°30'0 0.0
2017-Jun-16 02:30N 38°02' E 023°30'0 0.0
2017-Jun-16 02:00N 38°02' E 023°30'0 0.0
2017-Jun-16 01:30N 38°02' E 023°30'0 0.0
2017-Jun-16 01:00N 38°02' E 023°30'0 0.0
2017-Jun-16 00:30N 38°02' E 023°30'0 0.0
2017-Jun-16 00:00N 38°02' E 023°30'0 0.0
2017-Jun-15 23:30N 38°02' E 023°30'0 0.0
2017-Jun-15 22:57N 38°02' E 023°30'0 0.0
2017-Jun-15 22:30N 38°02' E 023°30'0 0.0
2017-Jun-15 22:00N 38°02' E 023°30'0 0.0
2017-Jun-15 21:30N 38°02' E 023°30'0 0.0
2017-Jun-15 21:00N 38°02' E 023°30'0 0.0
2017-Jun-15 20:27N 38°02' E 023°30'0 0.0
2017-Jun-15 19:57N 38°02' E 023°30'0 0.0
2017-Jun-15 19:30N 38°02' E 023°30'0 0.0
2017-Jun-15 19:00N 38°02' E 023°30'0 0.0
2017-Jun-15 18:30N 38°02' E 023°30'0 0.0
2017-Jun-15 18:00N 38°02' E 023°30'0 0.0
2017-Jun-15 17:30N 38°02' E 023°30'0 0.0
2017-Jun-15 17:00N 38°02' E 023°30'0 0.0
2017-Jun-15 16:27N 38°02' E 023°30'0 0.0
2017-Jun-15 15:57N 38°02' E 023°30'0 0.0
2017-Jun-15 15:27N 38°02' E 023°30'0 0.0
2017-Jun-15 14:57N 38°02' E 023°30'0 0.0
2017-Jun-15 14:30N 38°02' E 023°30'0 0.0
2017-Jun-15 13:30N 38°02' E 023°30'0 0.0
2017-Jun-15 12:57N 38°02' E 023°30'0 0.0
2017-Jun-15 12:30N 38°02' E 023°30'0 0.0
2017-Jun-15 12:00N 38°02' E 023°30'0 0.0
2017-Jun-15 11:27N 38°02' E 023°30'0 0.0
2017-Jun-15 11:00N 38°02' E 023°30'0 0.0
2017-Jun-15 10:30N 38°02' E 023°30'0 0.0
2017-Jun-15 10:00N 38°02' E 023°30'0 0.0
2017-Jun-15 09:30N 38°02' E 023°30'0 0.0
2017-Jun-15 09:00N 38°02' E 023°30'0 0.0
2017-Jun-15 08:30N 38°02' E 023°30'0 0.0
2017-Jun-15 07:48N 38°02' E 023°30'0 0.0
2017-Jun-15 07:30N 38°02' E 023°30'0 0.0
2017-Jun-15 07:00N 38°02' E 023°30'0 0.0
2017-Jun-15 06:30N 38°02' E 023°30'0 0.0
2017-Jun-15 06:00N 38°02' E 023°30'0 0.0
2017-Jun-15 05:30N 38°02' E 023°30'0 0.0
2017-Jun-15 05:00N 38°02' E 023°30'0 0.0
2017-Jun-15 04:30N 38°02' E 023°30'0 0.0
2017-Jun-15 04:00N 38°02' E 023°30'0 0.0
2017-Jun-15 03:30N 38°02' E 023°30'0 0.0
2017-Jun-15 03:00N 38°02' E 023°30'0 0.0
2017-Jun-15 02:30N 38°02' E 023°30'0 0.0
2017-Jun-15 02:00N 38°02' E 023°30'0 0.0
2017-Jun-15 01:30N 38°02' E 023°30'0 0.0
2017-Jun-15 01:00N 38°02' E 023°30'0 0.0
2017-Jun-15 00:30N 38°02' E 023°30'0 0.0
2017-Jun-15 00:00N 38°02' E 023°30'0 0.0
2017-Jun-14 23:30N 38°02' E 023°30'0 0.0
2017-Jun-14 23:00N 38°02' E 023°30'0 0.0
2017-Jun-14 22:30N 38°02' E 023°30'0 0.0
2017-Jun-14 22:00N 38°02' E 023°30'0 0.0
2017-Jun-14 21:30N 38°02' E 023°30'0 0.0
2017-Jun-14 21:00N 38°02' E 023°30'0 0.0
2017-Jun-14 20:30N 38°02' E 023°30'0 0.0
2017-Jun-14 20:00N 38°02' E 023°30'0 0.0
2017-Jun-14 19:30N 38°02' E 023°30'0 0.0
2017-Jun-14 19:00N 38°02' E 023°30'0 0.0
2017-Jun-14 18:30N 38°02' E 023°30'0 0.0
2017-Jun-14 18:00N 38°02' E 023°30'  

Dump ship's entire track history